Time;durP1;ratioP1;P1;durP2;ratioP2;P2;SDS_P1;SDS_P2;PMS_P1;PMS_P2;Temp;Humidity;BMP_temperature;BMP_pressure;BME280_temperature;BME280_humidity;BME280_pressure;Samples;Min_cycle;Max_cycle;Signal;HPM_P1;HPM_P2
2022/08/31 00:05:33;;;;;;;1.83;1.73;;;15.70;99.90;;;;;;5095897;28;20407;-73
2022/08/31 00:08:00;;;;;;;3.90;1.97;;;15.80;99.90;;;;;;5095882;28;20490;-72
2022/08/31 00:10:28;;;;;;;1.77;1.60;;;15.80;99.90;;;;;;5096289;28;21122;-73
2022/08/31 00:12:55;;;;;;;2.23;2.10;;;15.70;99.90;;;;;;5095701;28;20447;-73
2022/08/31 00:15:24;;;;;;;2.77;1.60;;;15.60;99.90;;;;;;5095838;28;20448;-72
2022/08/31 00:17:52;;;;;;;1.50;1.33;;;15.60;99.90;;;;;;5095800;28;20451;-73
2022/08/31 00:20:21;;;;;;;2.00;1.77;;;15.60;99.90;;;;;;5095621;28;20468;-73
2022/08/31 00:22:49;;;;;;;4.30;1.70;;;15.60;99.90;;;;;;5095482;28;20939;-72
2022/08/31 00:25:16;;;;;;;2.00;1.77;;;15.60;99.90;;;;;;5095563;28;20448;-73
2022/08/31 00:27:42;;;;;;;2.07;1.97;;;15.60;99.90;;;;;;5095214;28;20482;-73
2022/08/31 00:30:11;;;;;;;4.57;1.87;;;15.50;99.90;;;;;;5095557;28;20456;-72
2022/08/31 00:32:38;;;;;;;1.97;1.60;;;15.60;99.90;;;;;;5095588;28;20475;-72
2022/08/31 00:35:06;;;;;;;3.73;1.60;;;15.60;99.90;;;;;;5095500;28;20448;-72
2022/08/31 00:37:33;;;;;;;1.83;1.73;;;15.50;99.90;;;;;;5095131;28;20414;-72
2022/08/31 00:40:01;;;;;;;1.97;1.80;;;15.70;99.90;;;;;;5095270;28;20452;-72
2022/08/31 00:42:27;;;;;;;1.87;1.77;;;15.50;99.90;;;;;;5095294;28;20835;-72
2022/08/31 00:44:54;;;;;;;3.80;1.80;;;15.50;99.90;;;;;;5095029;28;20448;-72
2022/08/31 00:47:21;;;;;;;2.10;1.90;;;15.50;99.90;;;;;;5095195;28;20896;-73
2022/08/31 00:49:50;;;;;;;3.00;1.50;;;15.50;99.90;;;;;;5094225;28;20451;-72
2022/08/31 00:52:21;;;;;;;1.80;1.70;;;15.40;99.90;;;;;;5095124;28;20456;-72
2022/08/31 00:54:52;;;;;;;1.50;1.40;;;15.40;99.90;;;;;;5095186;28;20491;-72
2022/08/31 00:57:21;;;;;;;1.90;1.80;;;15.40;99.90;;;;;;5095136;28;20557;-72
2022/08/31 00:59:49;;;;;;;2.43;2.07;;;15.20;99.90;;;;;;5095211;28;20448;-72
2022/08/31 01:02:17;;;;;;;2.33;1.83;;;15.20;99.90;;;;;;5094883;28;20909;-73
2022/08/31 01:04:44;;;;;;;1.60;1.50;;;15.30;99.90;;;;;;5095202;28;20508;-73
2022/08/31 01:07:11;;;;;;;2.20;1.63;;;15.20;99.90;;;;;;5094904;28;20483;-72
2022/08/31 01:09:42;;;;;;;1.80;1.70;;;15.20;99.90;;;;;;5094928;28;20458;-72
2022/08/31 01:12:09;;;;;;;1.63;1.40;;;15.20;99.90;;;;;;5094680;28;20460;-72
2022/08/31 01:14:39;;;;;;;3.83;1.70;;;15.20;99.90;;;;;;5094987;28;20451;-73
2022/08/31 01:17:06;;;;;;;1.70;1.60;;;15.20;99.90;;;;;;5094436;28;20936;-73
2022/08/31 01:19:36;;;;;;;1.73;1.60;;;15.20;99.90;;;;;;5094376;28;20940;-73
2022/08/31 01:22:10;;;;;;;1.80;1.70;;;15.10;99.90;;;;;;5094730;28;20471;-72
2022/08/31 01:24:40;;;;;;;1.57;1.47;;;15.00;99.90;;;;;;5094671;28;20425;-72
2022/08/31 01:27:08;;;;;;;2.30;2.00;;;15.00;99.90;;;;;;5094708;28;20525;-74
2022/08/31 01:29:36;;;;;;;2.50;1.50;;;15.10;99.90;;;;;;5094604;28;20420;-73
2022/08/31 01:32:04;;;;;;;2.00;1.90;;;15.10;99.90;;;;;;5093941;28;20471;-74
2022/08/31 01:34:30;;;;;;;3.17;1.97;;;15.10;99.90;;;;;;5094714;28;20440;-72
2022/08/31 01:36:57;;;;;;;1.80;1.70;;;15.00;99.90;;;;;;5094371;28;20448;-72
2022/08/31 01:39:24;;;;;;;1.97;1.87;;;14.90;99.90;;;;;;5094282;28;20451;-73
2022/08/31 01:41:53;;;;;;;1.70;1.60;;;15.00;99.90;;;;;;5093805;28;20471;-73
2022/08/31 01:44:23;;;;;;;1.80;1.70;;;15.00;99.90;;;;;;5094120;28;20448;-72
2022/08/31 01:46:51;;;;;;;3.17;1.77;;;15.10;99.90;;;;;;5093663;28;20475;-73
2022/08/31 01:49:19;;;;;;;1.53;1.40;;;15.10;99.90;;;;;;5094036;28;20518;-72
2022/08/31 01:51:46;;;;;;;3.30;1.83;;;15.00;99.90;;;;;;5093928;28;20435;-73
2022/08/31 01:54:13;;;;;;;2.90;1.90;;;15.00;99.90;;;;;;5093683;28;20444;-74
2022/08/31 01:56:42;;;;;;;3.03;2.10;;;15.10;99.90;;;;;;5093888;28;20819;-73
2022/08/31 01:59:13;;;;;;;2.10;1.93;;;15.00;99.90;;;;;;5094276;28;20458;-73
2022/08/31 02:01:43;;;;;;;2.90;2.27;;;15.10;99.90;;;;;;5093230;28;20475;-72
2022/08/31 02:04:12;;;;;;;2.10;1.50;;;15.10;99.90;;;;;;5093811;28;20546;-72
2022/08/31 02:06:41;;;;;;;2.00;1.90;;;15.10;99.90;;;;;;5093730;28;20448;-73
2022/08/31 02:09:09;;;;;;;1.73;1.60;;;15.10;99.90;;;;;;5093613;28;20455;-73
2022/08/31 02:11:36;;;;;;;2.30;1.63;;;15.10;99.90;;;;;;5093542;28;20468;-73
2022/08/31 02:14:03;;;;;;;2.40;1.90;;;15.20;99.90;;;;;;5093664;28;20484;-73
2022/08/31 02:16:31;;;;;;;3.17;2.30;;;15.20;99.90;;;;;;5094238;28;20819;-72
2022/08/31 02:18:57;;;;;;;2.10;1.83;;;15.20;99.90;;;;;;5093177;28;20451;-73
2022/08/31 02:21:25;;;;;;;1.83;1.73;;;15.20;99.90;;;;;;5093379;28;20471;-72
2022/08/31 02:23:51;;;;;;;2.00;1.90;;;15.20;99.90;;;;;;5093503;28;20815;-73
2022/08/31 02:26:18;;;;;;;2.57;2.10;;;15.30;99.90;;;;;;5093152;28;20451;-73
2022/08/31 02:28:45;;;;;;;4.50;2.20;;;15.40;99.90;;;;;;5093414;28;20480;-72
2022/08/31 02:31:12;;;;;;;2.03;1.83;;;15.40;99.90;;;;;;5093191;28;20463;-73
2022/08/31 02:33:40;;;;;;;2.80;2.00;;;15.30;99.90;;;;;;5093283;28;20505;-73
2022/08/31 02:36:07;;;;;;;2.27;1.80;;;15.30;99.90;;;;;;5093257;28;20448;-73
2022/08/31 02:38:35;;;;;;;2.17;2.07;;;15.40;99.90;;;;;;5093133;28;20440;-72
2022/08/31 02:41:02;;;;;;;2.83;1.90;;;15.40;99.90;;;;;;5092745;28;20999;-72
2022/08/31 02:43:29;;;;;;;2.07;1.63;;;15.40;99.90;;;;;;5093195;28;20446;-72
2022/08/31 02:45:56;;;;;;;2.00;1.90;;;15.40;99.90;;;;;;5093095;28;20448;-72
2022/08/31 02:48:22;;;;;;;3.67;1.90;;;15.40;99.90;;;;;;5092589;28;20476;-72
2022/08/31 02:50:52;;;;;;;3.27;2.33;;;15.40;99.90;;;;;;5092931;28;20479;-72
2022/08/31 02:53:21;;;;;;;4.67;1.70;;;15.40;99.90;;;;;;5093034;28;20818;-72
2022/08/31 02:55:49;;;;;;;2.70;1.70;;;15.40;99.90;;;;;;5093254;28;20443;-73
2022/08/31 02:58:16;;;;;;;2.20;1.80;;;15.40;99.90;;;;;;5093137;28;20451;-72
2022/08/31 03:00:45;;;;;;;1.77;1.60;;;15.30;99.90;;;;;;5092701;28;21022;-73
2022/08/31 03:03:13;;;;;;;5.73;2.50;;;15.40;99.90;;;;;;5092982;28;20932;-73
2022/08/31 03:05:40;;;;;;;2.00;1.73;;;15.40;99.90;;;;;;5093425;28;20447;-73
2022/08/31 03:08:08;;;;;;;1.70;1.60;;;15.40;99.90;;;;;;5092850;28;20480;-73
2022/08/31 03:10:35;;;;;;;1.90;1.70;;;15.40;99.90;;;;;;5092906;28;20468;-73
2022/08/31 03:13:02;;;;;;;2.10;1.77;;;15.30;99.90;;;;;;5092978;28;20478;-73
2022/08/31 03:15:29;;;;;;;2.37;2.17;;;15.30;99.90;;;;;;5096805;28;20979;-72
2022/08/31 03:17:57;;;;;;;3.17;2.57;;;15.40;99.90;;;;;;5096986;28;20811;-73
2022/08/31 03:20:26;;;;;;;3.93;2.17;;;15.40;99.90;;;;;;5097021;28;20471;-73
2022/08/31 03:22:53;;;;;;;1.80;1.70;;;15.40;99.90;;;;;;5097034;28;20454;-73
2022/08/31 03:25:21;;;;;;;2.53;1.70;;;15.30;99.90;;;;;;5096831;28;20444;-72
2022/08/31 03:27:48;;;;;;;2.70;1.90;;;15.30;99.90;;;;;;5096689;28;20483;-71
2022/08/31 03:30:17;;;;;;;1.47;1.37;;;15.30;99.90;;;;;;5096786;28;20865;-71
2022/08/31 03:32:44;;;;;;;4.37;1.90;;;15.30;99.90;;;;;;5096370;28;20934;-72
2022/08/31 03:35:11;;;;;;;4.00;2.20;;;15.30;99.90;;;;;;5096622;28;20835;-73
2022/08/31 03:37:38;;;;;;;3.10;2.70;;;15.30;99.90;;;;;;5096598;28;20440;-72
2022/08/31 03:40:06;;;;;;;3.00;1.93;;;15.50;99.90;;;;;;5096421;28;20447;-71
2022/08/31 03:42:35;;;;;;;2.97;1.63;;;15.30;99.90;;;;;;5096378;28;20480;-71
2022/08/31 03:45:01;;;;;;;1.80;1.70;;;15.20;99.90;;;;;;5096143;28;20435;-72
2022/08/31 03:47:28;;;;;;;3.80;2.20;;;15.20;99.90;;;;;;5096000;28;20478;-73
2022/08/31 03:49:55;;;;;;;1.97;1.87;;;15.30;99.90;;;;;;5096564;28;20439;-72
2022/08/31 03:52:22;;;;;;;3.40;3.10;;;14.70;99.90;;;;;;5095912;28;20452;-72
2022/08/31 03:54:48;;;;;;;2.77;1.80;;;15.10;99.90;;;;;;5096559;28;20443;-72
2022/08/31 03:57:15;;;;;;;3.90;2.10;;;15.10;99.90;;;;;;5096228;28;20447;-73
2022/08/31 03:59:43;;;;;;;3.10;2.30;;;15.10;99.90;;;;;;5096144;28;20861;-72
2022/08/31 04:02:10;;;;;;;3.20;2.80;;;15.10;99.90;;;;;;5125797;22;20491;-71
2022/08/31 04:04:37;;;;;;;2.60;2.10;;;15.20;99.90;;;;;;5116452;28;20907;-71
2022/08/31 04:07:04;;;;;;;4.23;2.63;;;15.20;99.90;;;;;;5116732;28;20442;-71
2022/08/31 04:09:30;;;;;;;4.10;2.37;;;15.20;99.90;;;;;;5116245;28;20478;-71
2022/08/31 04:11:57;;;;;;;2.10;2.00;;;15.20;99.90;;;;;;5116619;28;20471;-72
2022/08/31 04:14:24;;;;;;;4.17;2.10;;;15.10;99.90;;;;;;5116687;28;20443;-71
2022/08/31 04:16:52;;;;;;;1.90;1.73;;;15.10;99.90;;;;;;5116507;28;20848;-71
2022/08/31 04:19:18;;;;;;;15.13;10.90;;;15.10;99.90;;;;;;5116391;28;20439;-71
2022/08/31 04:21:46;;;;;;;3.77;3.27;;;15.10;99.90;;;;;;5116337;28;20982;-72
2022/08/31 04:24:13;;;;;;;2.20;1.93;;;15.10;99.90;;;;;;5116096;28;20521;-71
2022/08/31 04:26:40;;;;;;;3.07;1.80;;;15.10;99.90;;;;;;5116307;28;20446;-72
2022/08/31 04:29:07;;;;;;;3.27;2.33;;;15.10;99.90;;;;;;5116160;28;20531;-72
2022/08/31 04:31:36;;;;;;;4.30;2.20;;;15.10;99.90;;;;;;5116095;28;20474;-71
2022/08/31 04:34:04;;;;;;;2.20;2.00;;;15.00;99.90;;;;;;5115959;28;20845;-71
2022/08/31 04:36:31;;;;;;;3.30;1.93;;;15.00;99.90;;;;;;5116138;28;20895;-72
2022/08/31 04:39:01;;;;;;;3.30;2.33;;;15.00;99.90;;;;;;5115916;28;20435;-71
2022/08/31 04:41:30;;;;;;;4.53;2.10;;;15.00;99.90;;;;;;5115823;28;20469;-71
2022/08/31 04:43:59;;;;;;;3.63;2.37;;;15.00;99.90;;;;;;5115918;28;20806;-71
2022/08/31 04:46:27;;;;;;;2.23;1.90;;;14.90;99.90;;;;;;5116571;28;20760;-71
2022/08/31 04:48:54;;;;;;;2.30;2.10;;;14.90;99.90;;;;;;5115606;28;20474;-72
2022/08/31 04:51:24;;;;;;;2.30;2.20;;;14.80;99.90;;;;;;5115628;28;20977;-72
2022/08/31 04:53:52;;;;;;;1.77;1.67;;;14.80;99.90;;;;;;5115568;28;20447;-72
2022/08/31 04:56:21;;;;;;;5.00;2.40;;;14.80;99.90;;;;;;5115722;28;20469;-72
2022/08/31 04:58:50;;;;;;;3.13;2.50;;;14.80;99.90;;;;;;5115275;28;20927;-72
2022/08/31 05:01:20;;;;;;;3.43;2.40;;;14.80;99.90;;;;;;5115356;28;20528;-72
2022/08/31 05:03:49;;;;;;;2.23;2.03;;;14.80;99.90;;;;;;5115473;28;20454;-72
2022/08/31 05:06:17;;;;;;;2.50;2.30;;;14.80;99.90;;;;;;5115493;28;20443;-72
2022/08/31 05:08:45;;;;;;;2.83;2.10;;;14.80;99.90;;;;;;5115286;28;20479;-72
2022/08/31 05:11:14;;;;;;;8.10;2.60;;;14.80;99.90;;;;;;5115352;28;20466;-72
2022/08/31 05:13:41;;;;;;;2.17;2.07;;;14.80;99.90;;;;;;5115393;28;20517;-72
2022/08/31 05:16:10;;;;;;;4.17;2.23;;;14.80;99.90;;;;;;5115589;28;20841;-72
2022/08/31 05:18:38;;;;;;;2.63;2.43;;;14.90;99.90;;;;;;5114858;28;20447;-72
2022/08/31 05:21:11;;;;;;;4.53;2.13;;;14.90;99.90;;;;;;5115412;28;20463;-72
2022/08/31 05:23:38;;;;;;;4.37;2.50;;;14.90;99.90;;;;;;5116001;28;20447;-72
2022/08/31 05:26:07;;;;;;;4.10;2.40;;;15.00;99.90;;;;;;5114867;28;20562;-72
2022/08/31 05:28:35;;;;;;;4.80;2.67;;;15.00;99.90;;;;;;5115200;28;20474;-73
2022/08/31 05:31:02;;;;;;;3.40;1.87;;;15.00;99.90;;;;;;5115131;28;20528;-71
2022/08/31 05:33:29;;;;;;;3.70;2.60;;;15.00;99.90;;;;;;5115102;28;20471;-72
2022/08/31 05:35:56;;;;;;;3.90;2.33;;;15.10;99.90;;;;;;5114134;28;20969;-72
2022/08/31 05:38:23;;;;;;;4.80;2.87;;;15.20;99.90;;;;;;5114890;28;20451;-72
2022/08/31 05:40:52;;;;;;;9.27;2.90;;;15.20;99.90;;;;;;5114596;28;20520;-72
2022/08/31 05:43:21;;;;;;;4.90;2.30;;;15.20;99.90;;;;;;5114537;28;20530;-72
2022/08/31 05:45:47;;;;;;;2.20;2.00;;;15.20;99.90;;;;;;5114457;28;20442;-71
2022/08/31 05:48:14;;;;;;;3.27;2.40;;;15.30;99.90;;;;;;5114705;28;20456;-72
2022/08/31 05:50:41;;;;;;;14.60;2.83;;;15.30;99.90;;;;;;5114307;28;20467;-72
2022/08/31 05:53:08;;;;;;;12.90;2.87;;;15.30;99.90;;;;;;5114165;28;20451;-72
2022/08/31 05:55:35;;;;;;;3.07;2.10;;;15.30;99.90;;;;;;5114114;28;20546;-72
2022/08/31 05:58:02;;;;;;;3.87;1.57;;;15.30;99.90;;;;;;5114237;28;20443;-72
2022/08/31 06:00:31;;;;;;;13.27;3.70;;;15.10;99.90;;;;;;5113996;28;20450;-72
2022/08/31 06:02:58;;;;;;;8.20;3.00;;;15.40;99.90;;;;;;5114230;28;20427;-72
2022/08/31 06:05:24;;;;;;;8.00;2.60;;;15.40;99.90;;;;;;5113732;28;20439;-72
2022/08/31 06:07:51;;;;;;;12.43;2.20;;;15.50;99.90;;;;;;5114323;28;20443;-72
2022/08/31 06:10:19;;;;;;;5.70;2.10;;;15.40;99.90;;;;;;5114114;28;20454;-72
2022/08/31 06:12:47;;;;;;;2.10;1.73;;;15.60;99.90;;;;;;5114313;28;20425;-72
2022/08/31 06:15:15;;;;;;;11.83;2.23;;;15.60;99.90;;;;;;5114058;28;20522;-72
2022/08/31 06:17:43;;;;;;;7.67;5.83;;;15.70;99.90;;;;;;5114024;28;20443;-72
2022/08/31 06:20:10;;;;;;;3.60;2.57;;;15.70;99.90;;;;;;5113949;28;20439;-72
2022/08/31 06:22:38;;;;;;;2.30;1.77;;;15.70;91.10;;;;;;5113630;28;20950;-72
2022/08/31 06:25:05;;;;;;;2.90;1.90;;;15.80;93.20;;;;;;5113850;28;20446;-72
2022/08/31 06:27:32;;;;;;;2.10;1.67;;;15.90;99.90;;;;;;5113751;28;20500;-72
2022/08/31 06:30:00;;;;;;;1.90;1.40;;;15.90;99.90;;;;;;5113651;28;20475;-72
2022/08/31 06:32:27;;;;;;;1.70;1.50;;;15.90;14.20;;;;;;5113536;28;20505;-72
2022/08/31 06:34:55;;;;;;;4.10;1.73;;;15.90;23.10;;;;;;5113503;28;20450;-70
2022/08/31 06:37:22;;;;;;;4.13;1.70;;;15.90;29.40;;;;;;5113933;28;20440;-71
2022/08/31 06:39:52;;;;;;;6.10;1.70;;;16.00;9.60;;;;;;5113490;28;20443;-71
2022/08/31 06:42:19;;;;;;;3.77;1.73;;;16.00;1.00;;;;;;5113808;28;20467;-71
2022/08/31 06:44:46;;;;;;;7.60;1.67;;;16.00;1.00;;;;;;5113669;28;20443;-72
2022/08/31 06:47:12;;;;;;;4.60;2.20;;;16.10;1.00;;;;;;5113683;28;20443;-72
2022/08/31 06:49:39;;;;;;;3.33;1.80;;;16.10;1.00;;;;;;5113410;28;20481;-72
2022/08/31 06:52:07;;;;;;;20.77;3.93;;;16.20;42.30;;;;;;5113810;28;20459;-71
2022/08/31 06:54:35;;;;;;;4.07;1.93;;;16.20;1.00;;;;;;5113978;28;20500;-72
2022/08/31 06:57:02;;;;;;;57.63;7.40;;;16.30;1.00;;;;;;5113880;28;20453;-72
2022/08/31 06:59:29;;;;;;;21.13;2.80;;;16.40;1.00;;;;;;5115584;28;20541;-72
2022/08/31 07:01:55;;;;;;;2.27;1.50;;;16.40;1.00;;;;;;5113822;28;20491;-71
2022/08/31 07:04:22;;;;;;;5.63;1.70;;;16.50;1.00;;;;;;5114375;28;20439;-71
2022/08/31 07:06:49;;;;;;;11.73;2.40;;;16.50;1.00;;;;;;5113732;28;20447;-72
2022/08/31 07:09:17;;;;;;;47.83;6.93;;;16.60;1.00;;;;;;5113221;28;21017;-72
2022/08/31 07:11:46;;;;;;;15.77;2.53;;;16.70;99.90;;;;;;5113467;28;20846;-73
2022/08/31 07:14:16;;;;;;;5.10;1.83;;;16.70;99.90;;;;;;5113501;28;20451;-72
2022/08/31 07:16:43;;;;;;;7.67;2.30;;;16.90;1.00;;;;;;5113345;28;20450;-72
2022/08/31 07:19:11;;;;;;;1.77;1.17;;;16.90;99.90;;;;;;5113123;28;20815;-73
2022/08/31 07:21:40;;;;;;;2.10;1.10;;;16.90;99.90;;;;;;5113250;28;20462;-72
2022/08/31 07:24:08;;;;;;;1.37;1.27;;;16.90;99.90;;;;;;5113434;28;20443;-71
2022/08/31 07:26:41;;;;;;;1.97;1.10;;;17.00;99.90;;;;;;5113252;28;20451;-72
2022/08/31 07:29:08;;;;;;;2.20;1.30;;;17.10;99.90;;;;;;5113203;28;20475;-72
2022/08/31 07:31:43;;;;;;;2.10;1.30;;;17.20;99.90;;;;;;5113097;28;20463;-72
2022/08/31 07:34:11;;;;;;;8.90;2.50;;;17.20;1.00;;;;;;5113195;28;20430;-72
2022/08/31 07:42:11;;;;;;;1.83;1.70;;;17.30;1.00;;;;;;5112605;28;20450;-72
2022/08/31 07:44:40;;;;;;;1.87;0.93;;;17.40;99.90;;;;;;5113634;28;20443;-72
2022/08/31 07:47:11;;;;;;;2.17;1.20;;;17.40;5.10;;;;;;5112882;28;20533;-72
2022/08/31 07:49:39;;;;;;;2.10;1.43;;;17.40;99.90;;;;;;5112881;28;20510;-72
2022/08/31 07:52:07;;;;;;;1.07;0.90;;;17.40;99.90;;;;;;5112923;28;20818;-72
2022/08/31 07:54:34;;;;;;;1.50;1.40;;;17.50;99.90;;;;;;5112885;28;20895;-72
2022/08/31 07:57:03;;;;;;;4.23;2.27;;;17.60;1.00;;;;;;5112916;28;20457;-71
2022/08/31 07:59:33;;;;;;;25.63;1.87;;;17.70;99.90;;;;;;5113948;28;20450;-72
2022/08/31 08:02:02;;;;;;;3.53;1.10;;;17.70;1.00;;;;;;5116847;28;20478;-72
2022/08/31 08:04:29;;;;;;;2.70;1.13;;;17.70;1.00;;;;;;5116329;28;20451;-72
2022/08/31 08:06:57;;;;;;;4.57;2.83;;;17.80;99.90;;;;;;5116323;28;20473;-72
2022/08/31 08:09:24;;;;;;;4.93;2.47;;;18.00;99.90;;;;;;5115898;28;20482;-72
2022/08/31 08:11:53;;;;;;;7.50;1.70;;;18.00;1.00;;;;;;5116315;27;20484;-72
2022/08/31 08:14:21;;;;;;;9.80;2.83;;;18.00;99.90;;;;;;5116232;28;20477;-72
2022/08/31 08:16:49;;;;;;;3.30;1.87;;;18.00;99.90;;;;;;5116255;28;20856;-71
2022/08/31 08:19:16;;;;;;;6.47;1.73;;;18.10;1.00;;;;;;5116691;28;20436;-72
2022/08/31 08:21:44;;;;;;;1.50;1.17;;;18.20;99.90;;;;;;5116053;28;20467;-72
2022/08/31 08:24:10;;;;;;;4.43;1.40;;;18.30;99.90;;;;;;5116438;28;20498;-72
2022/08/31 08:26:37;;;;;;;8.20;1.33;;;18.40;29.40;;;;;;5116524;28;20527;-72
2022/08/31 08:29:05;;;;;;;2.30;1.33;;;18.40;1.00;;;;;;5116436;28;20482;-72
2022/08/31 08:31:32;;;;;;;2.03;1.33;;;18.50;11.40;;;;;;5116142;28;20826;-71
2022/08/31 08:34:00;;;;;;;1.70;1.47;;;18.60;1.00;;;;;;5115805;28;20446;-72
2022/08/31 08:36:27;;;;;;;3.80;1.73;;;18.60;1.00;;;;;;5116023;28;20439;-72
2022/08/31 08:38:56;;;;;;;1.90;1.10;;;18.60;99.90;;;;;;5116016;28;20791;-72
2022/08/31 08:41:25;;;;;;;2.17;1.30;;;18.60;99.90;;;;;;5115385;28;20974;-71
2022/08/31 08:43:54;;;;;;;3.20;1.10;;;18.70;1.00;;;;;;5115803;28;20450;-71
2022/08/31 08:46:28;;;;;;;1.60;1.10;;;18.70;99.90;;;;;;5115910;28;20443;-72
2022/08/31 08:48:59;;;;;;;1.97;1.33;;;18.70;1.00;;;;;;5116309;28;20518;-71
2022/08/31 08:51:33;;;;;;;3.47;1.33;;;18.80;1.00;;;;;;5115987;28;20966;-71
2022/08/31 08:54:07;;;;;;;3.93;1.30;;;18.90;99.90;;;;;;5116401;28;20423;-72
2022/08/31 08:56:40;;;;;;;1.90;1.23;;;18.80;93.80;;;;;;5115610;28;20427;-72
2022/08/31 08:59:10;;;;;;;2.70;1.10;;;18.80;99.90;;;;;;5115901;28;20473;-72
2022/08/31 09:01:37;;;;;;;1.00;0.70;;;18.90;99.90;;;;;;5115057;28;20482;-72
2022/08/31 09:04:15;;;;;;;2.83;1.23;;;18.80;1.00;;;;;;5115667;28;20443;-73
2022/08/31 09:06:53;;;;;;;3.03;1.53;;;18.90;99.90;;;;;;5116223;28;20435;-72
2022/08/31 09:09:33;;;;;;;2.67;2.30;;;18.90;99.90;;;;;;5115574;28;20473;-72
2022/08/31 09:12:17;;;;;;;1.40;1.30;;;18.90;1.00;;;;;;5114967;28;20558;-72
2022/08/31 09:14:59;;;;;;;2.60;1.30;;;18.90;65.50;;;;;;5115423;28;20430;-72
2022/08/31 09:17:40;;;;;;;2.50;1.27;;;19.00;99.90;;;;;;5114772;28;20871;-72
2022/08/31 09:20:10;;;;;;;1.70;1.10;;;19.10;23.70;;;;;;5115361;28;20436;-72
2022/08/31 09:22:47;;;;;;;3.13;1.27;;;19.10;1.00;;;;;;5115151;28;20480;-71
2022/08/31 09:25:16;;;;;;;4.30;0.90;;;19.20;87.20;;;;;;5114727;28;20457;-71
2022/08/31 09:27:46;;;;;;;2.80;1.43;;;19.30;62.90;;;;;;5114929;28;20553;-71
2022/08/31 09:30:17;;;;;;;2.73;1.30;;;19.40;21.00;;;;;;5114454;28;20520;-71
2022/08/31 09:32:55;;;;;;;2.43;1.50;;;19.40;1.00;;;;;;5114961;28;20939;-72
2022/08/31 09:35:26;;;;;;;3.33;1.80;;;19.50;1.00;;;;;;5115284;28;20463;-71
2022/08/31 09:38:01;;;;;;;2.50;1.20;;;19.60;1.00;;;;;;5114447;28;20428;-72
2022/08/31 09:40:38;;;;;;;1.93;0.90;;;20.00;22.90;;;;;;5115094;28;20524;-72
2022/08/31 09:43:08;;;;;;;1.80;1.33;;;19.60;1.00;;;;;;5114732;28;20435;-71
2022/08/31 09:45:36;;;;;;;1.93;1.17;;;19.70;1.00;;;;;;5114830;28;20522;-73
2022/08/31 09:48:04;;;;;;;2.80;1.60;;;19.60;1.00;;;;;;5114431;28;20451;-72
2022/08/31 09:50:35;;;;;;;2.90;1.30;;;19.60;99.90;;;;;;5115196;28;20565;-72
2022/08/31 09:56:14;;;;;;;3.60;1.50;;;19.60;1.00;;;;;;5114544;28;20895;-72
2022/08/31 09:58:43;;;;;;;2.57;2.37;;;19.60;86.00;;;;;;5114634;28;20450;-72
2022/08/31 10:01:17;;;;;;;4.60;1.63;;;19.50;96.20;;;;;;5088619;22;1051588;-73
2022/08/31 10:03:46;;;;;;;3.80;1.40;;;19.70;1.00;;;;;;5094634;28;20439;-73
2022/08/31 10:06:40;;;;;;;5.47;2.00;;;19.60;1.00;;;;;;5094091;28;20448;-73
2022/08/31 10:09:14;;;;;;;1.97;1.30;;;19.50;1.00;;;;;;5094188;28;20439;-73
2022/08/31 10:11:46;;;;;;;1.83;1.40;;;19.60;55.90;;;;;;5094080;28;20467;-73
2022/08/31 10:14:25;;;;;;;22.47;2.73;;;19.60;99.90;;;;;;5093838;28;20452;-73
2022/08/31 10:16:59;;;;;;;3.40;2.00;;;19.50;1.00;;;;;;5093807;28;20808;-73
2022/08/31 10:19:33;;;;;;;2.03;1.37;;;19.40;56.20;;;;;;5093699;28;20424;-74
2022/08/31 10:22:04;;;;;;;1.20;1.00;;;19.40;99.90;;;;;;5093765;28;20512;-73
2022/08/31 10:24:40;;;;;;;2.90;1.07;;;19.40;38.00;;;;;;5093618;28;20447;-73
2022/08/31 10:27:15;;;;;;;1.80;1.40;;;19.30;99.90;;;;;;5093685;28;20439;-74
2022/08/31 10:29:49;;;;;;;4.47;3.90;;;19.30;99.90;;;;;;5093533;28;20467;-73
2022/08/31 10:32:27;;;;;;;1.63;1.33;;;19.40;85.50;;;;;;5093638;28;20822;-73
2022/08/31 10:35:05;;;;;;;2.93;1.40;;;19.50;96.60;;;;;;5093539;28;20466;-74
2022/08/31 10:37:42;;;;;;;1.87;1.40;;;19.50;99.90;;;;;;5093625;28;20464;-74
2022/08/31 10:40:24;;;;;;;2.90;1.20;;;19.60;99.90;;;;;;5093636;28;20428;-74
2022/08/31 10:43:03;;;;;;;1.60;1.50;;;19.70;99.90;;;;;;5093364;28;20460;-73
2022/08/31 10:45:34;;;;;;;1.40;1.10;;;19.70;99.90;;;;;;5093551;28;20802;-74
2022/08/31 10:48:02;;;;;;;3.53;2.13;;;19.80;51.00;;;;;;5093234;28;20438;-73
2022/08/31 10:50:39;;;;;;;17.03;3.03;;;19.80;99.90;;;;;;5093053;28;20483;-74
2022/08/31 10:53:15;;;;;;;3.47;1.33;;;19.90;1.00;;;;;;5093035;28;20462;-74
2022/08/31 10:55:50;;;;;;;1.30;0.90;;;19.80;1.00;;;;;;5093200;28;20435;-74
2022/08/31 10:58:30;;;;;;;2.10;1.60;;;19.70;1.00;;;;;;5093175;28;20459;-74
2022/08/31 11:01:03;;;;;;;1.73;1.33;;;19.80;1.00;;;;;;5092774;28;20429;-73
2022/08/31 11:03:52;;;;;;;2.10;1.20;;;20.10;99.90;;;;;;5093178;28;20412;-73
2022/08/31 11:06:25;;;;;;;1.43;1.27;;;20.20;1.00;;;;;;5093416;28;20795;-73
2022/08/31 11:09:02;;;;;;;4.20;1.60;;;20.20;1.00;;;;;;5094952;28;20436;-72
2022/08/31 11:11:38;;;;;;;1.50;1.40;;;20.10;1.00;;;;;;5095352;28;20494;-74
2022/08/31 11:14:26;;;;;;;4.73;1.10;;;20.00;1.00;;;;;;5095131;28;20439;-74
2022/08/31 11:17:10;;;;;;;2.03;1.40;;;20.00;1.00;;;;;;5092995;28;20481;-74
2022/08/31 11:19:55;;;;;;;1.77;1.20;;;19.90;1.00;;;;;;5096278;28;20452;-74
2022/08/31 11:22:50;;;;;;;1.53;1.10;;;20.00;99.90;;;;;;5097359;28;20534;-74
2022/08/31 11:25:57;;;;;;;1.60;1.07;;;20.00;1.00;;;;;;5097182;28;20424;-73
2022/08/31 11:28:32;;;;;;;3.50;1.20;;;20.00;1.00;;;;;;5092316;28;20465;-74
2022/08/31 11:31:01;;;;;;;5.43;2.40;;;20.20;56.50;;;;;;5094630;28;20471;-73
2022/08/31 11:33:30;;;;;;;7.37;1.60;;;20.50;1.00;;;;;;5094396;28;20450;-73
2022/08/31 11:36:04;;;;;;;3.00;1.30;;;20.50;1.00;;;;;;5096770;28;20455;-74
2022/08/31 11:38:44;;;;;;;4.50;2.20;;;20.40;1.00;;;;;;5097564;28;20522;-74
2022/08/31 11:41:31;;;;;;;3.70;1.47;;;20.40;1.00;;;;;;5097575;28;20459;-74
2022/08/31 11:44:03;;;;;;;17.73;2.43;;;20.20;1.00;;;;;;5097096;28;20424;-75
2022/08/31 11:47:01;;;;;;;1.53;1.43;;;20.10;1.00;;;;;;5097081;28;20435;-74
2022/08/31 11:49:41;;;;;;;2.30;1.17;;;20.00;1.00;;;;;;5096902;28;20493;-73
2022/08/31 11:52:24;;;;;;;2.30;1.33;;;20.00;1.00;;;;;;5097214;28;20497;-73
2022/08/31 11:55:05;;;;;;;3.93;2.03;;;20.00;1.00;;;;;;5096923;28;20472;-74
2022/08/31 11:58:11;;;;;;;1.50;1.30;;;20.10;1.00;;;;;;5097272;28;20431;-74
2022/08/31 12:00:44;;;;;;;2.40;1.20;;;20.20;1.00;;;;;;5096729;28;20440;-73
2022/08/31 12:03:33;;;;;;;1.10;1.00;;;20.20;1.00;;;;;;5096419;28;20455;-73
2022/08/31 12:05:59;;;;;;;1.80;1.70;;;20.50;1.00;;;;;;5096417;28;20489;-73
2022/08/31 12:08:30;;;;;;;1.00;0.90;;;20.70;1.00;;;;;;5096466;28;20451;-73
2022/08/31 12:11:01;;;;;;;1.20;1.10;;;20.80;45.40;;;;;;5095891;28;20525;-73
2022/08/31 12:13:48;;;;;;;13.90;2.00;;;21.10;67.30;;;;;;5096239;28;20440;-73
2022/08/31 12:16:46;;;;;;;16.33;2.60;;;21.00;1.00;;;;;;5096052;28;20420;-73
2022/08/31 12:25:24;;;;;;;3.60;1.57;;;20.60;1.00;;;;;;5096090;28;20502;-73
2022/08/31 12:28:04;;;;;;;2.40;1.47;;;20.80;1.00;;;;;;5095943;28;20427;-73
2022/08/31 12:30:30;;;;;;;1.80;1.40;;;20.90;1.00;;;;;;5095648;28;20464;-73
2022/08/31 12:33:04;;;;;;;4.20;1.63;;;20.90;1.00;;;;;;5095705;28;20505;-74
2022/08/31 12:35:33;;;;;;;0.93;0.83;;;20.90;1.00;;;;;;5095667;28;20482;-73
2022/08/31 12:38:02;;;;;;;3.00;1.10;;;20.90;1.00;;;;;;5095656;28;20836;-73
2022/08/31 12:40:31;;;;;;;1.87;1.23;;;21.00;1.00;;;;;;5095055;28;20966;-74
2022/08/31 12:43:05;;;;;;;4.30;2.50;;;21.10;1.00;;;;;;5095494;28;20513;-74
2022/08/31 12:45:57;;;;;;;2.23;1.20;;;21.00;1.00;;;;;;5094610;28;20837;-75
2022/08/31 12:48:52;;;;;;;4.37;3.13;;;21.00;1.00;;;;;;5095631;28;20473;-74
2022/08/31 12:51:31;;;;;;;4.17;2.57;;;20.90;1.00;;;;;;5095938;28;20488;-73
2022/08/31 12:54:13;;;;;;;4.73;1.80;;;20.80;1.00;;;;;;5095109;28;20427;-73
2022/08/31 12:56:49;;;;;;;1.40;1.27;;;20.80;1.00;;;;;;5095287;28;20446;-74
2022/08/31 12:59:28;;;;;;;2.13;1.20;;;20.80;1.00;;;;;;5095268;28;20451;-74
2022/08/31 13:01:54;;;;;;;1.63;0.97;;;21.00;1.00;;;;;;5095209;28;20545;-75
2022/08/31 13:04:23;;;;;;;1.63;1.40;;;21.20;33.80;;;;;;5095048;28;20968;-73
2022/08/31 13:06:50;;;;;;;1.93;1.40;;;21.30;1.00;;;;;;5094711;28;20443;-74
2022/08/31 13:09:29;;;;;;;1.90;1.30;;;21.40;1.00;;;;;;5094619;28;20444;-74
2022/08/31 13:11:58;;;;;;;4.67;1.13;;;21.40;1.00;;;;;;5094783;28;20479;-74
2022/08/31 13:14:26;;;;;;;1.10;0.80;;;21.40;1.00;;;;;;5094810;28;20470;-73
2022/08/31 13:16:57;;;;;;;1.00;0.90;;;21.40;1.00;;;;;;5095014;28;20451;-73
2022/08/31 13:19:28;;;;;;;3.03;1.07;;;21.20;1.00;;;;;;5094853;28;20915;-73
2022/08/31 13:21:57;;;;;;;1.50;1.17;;;21.30;1.00;;;;;;5094659;28;20464;-74
2022/08/31 13:24:29;;;;;;;1.00;0.90;;;21.40;1.00;;;;;;5094721;28;20444;-74